Time;durP1;ratioP1;P1;durP2;ratioP2;P2;SDS_P1;SDS_P2;PMS_P1;PMS_P2;Temp;Humidity;BMP_temperature;BMP_pressure;BME280_temperature;BME280_humidity;BME280_pressure;Samples;Min_cycle;Max_cycle;Signal;HPM_P1;HPM_P2
2022/10/17 00:00:39;;;;;;;;;;;;;;;12.06;59.85;101014.97;4339175;32;19994;-90
2022/10/17 00:03:04;;;;;;;;;;;;;;;12.11;59.85;101021.88;4338931;32;21990;-91
2022/10/17 00:05:29;;;;;;;;;;;;;;;12.02;59.84;101021.16;4338271;32;32860;-90
2022/10/17 00:07:55;;;;;;;;;;;;;;;12.01;59.84;101019.44;4338400;32;32553;-91
2022/10/17 00:10:20;;;;;;;;;;;;;;;11.99;59.84;101020.31;4339155;32;19979;-90
2022/10/17 00:12:45;;;;;;;;;;;;;;;12.08;59.85;101016.72;4351889;32;19988;-91
2022/10/17 00:15:13;;;;;;;;;;;;;;;12.05;59.85;101010.66;4338756;32;25407;-92
2022/10/17 00:17:38;;;;;;;;;;;;;;;11.98;59.84;101020.34;4339570;32;20646;-91
2022/10/17 00:20:03;;;;;;;;;;;;;;;11.93;59.84;101017.81;4339734;32;19983;-91
2022/10/17 00:22:28;;;;;;;;;;;;;;;11.90;59.85;101020.50;4340418;32;19987;-93
2022/10/17 00:24:54;;;;;;;;;;;;;;;11.81;59.83;101023.22;4340093;32;31833;-94
2022/10/17 00:27:19;;;;;;;;;;;;;;;11.90;59.84;101020.50;4353873;32;19989;-93
2022/10/17 00:29:48;;;;;;;;;;;;;;;12.02;59.85;101026.38;4341387;32;21800;-92
2022/10/17 00:32:13;;;;;;;;;;;;;;;11.83;59.84;101015.38;4357232;32;19963;-91
2022/10/17 00:34:39;;;;;;;;;;;;;;;11.93;59.84;101022.19;4342303;32;20009;-91
2022/10/17 00:37:04;;;;;;;;;;;;;;;11.75;59.83;101028.53;4338781;32;36731;-91
2022/10/17 00:39:29;;;;;;;;;;;;;;;11.73;59.83;101030.31;4339289;32;20022;-91
2022/10/17 00:41:54;;;;;;;;;;;;;;;11.73;59.83;101029.44;4351647;32;19979;-91
2022/10/17 00:44:29;;;;;;;;;;;;;;;11.79;59.84;101031.97;4338725;32;30695;-91
2022/10/17 00:46:54;;;;;;;;;;;;;;;11.72;59.83;101031.19;4365256;32;20041;-91
2022/10/17 00:49:20;;;;;;;;;;;;;;;11.76;59.83;101030.25;4339113;32;19991;-91
2022/10/17 00:51:48;;;;;;;;;;;;;;;11.90;59.84;101024.84;4338646;32;30890;-92
2022/10/17 00:54:14;;;;;;;;;;;;;;;11.76;59.83;101027.63;4339554;32;20025;-92
2022/10/17 00:56:40;;;;;;;;;;;;;;;11.62;59.83;101027.03;4351605;32;20313;-91
2022/10/17 00:59:05;;;;;;;;;;;;;;;11.58;59.82;101025.31;4338350;32;33961;-92
2022/10/17 01:01:31;;;;;;;;;;;;;;;11.51;59.81;101018.50;4339318;32;19992;-91
2022/10/17 01:03:56;;;;;;;;;;;;;;;11.61;59.83;101020.94;4339399;32;20009;-91
2022/10/17 01:06:21;;;;;;;;;;;;;;;11.63;59.82;101018.31;4338545;32;29430;-92
2022/10/17 01:08:46;;;;;;;;;;;;;;;11.60;59.83;101016.63;4364248;32;32635;-92
2022/10/17 01:11:18;;;;;;;;;;;;;;;11.62;59.82;101019.19;4350745;32;20341;-91
2022/10/17 01:13:54;;;;;;;;;;;;;;;11.74;59.83;101020.72;4364700;32;19999;-89
2022/10/17 01:16:41;;;;;;;;;;;;;;;11.62;59.82;101019.19;4351192;32;19972;-90
2022/10/17 01:19:32;;;;;;;;;;;;;;;11.53;59.82;101021.94;4338628;32;20010;-90
2022/10/17 01:21:59;;;;;;;;;;;;;;;11.50;59.81;101017.63;4351073;32;20003;-90
2022/10/17 01:24:41;;;;;;;;;;;;;;;11.48;59.82;101016.78;4351103;32;19994;-91
2022/10/17 01:27:22;;;;;;;;;;;;;;;11.53;59.82;101016.72;4350871;32;19979;-90
2022/10/17 01:29:47;;;;;;;;;;;;;;;11.32;59.81;101018.75;4338791;32;19993;-90
2022/10/17 01:32:19;;;;;;;;;;;;;;;11.51;59.82;101018.50;4350678;32;19991;-89
2022/10/17 01:34:45;;;;;;;;;;;;;;;11.40;59.82;101016.06;4364636;32;19992;-90
2022/10/17 01:37:13;;;;;;;;;;;;;;;11.44;59.81;101006.44;4351029;32;19989;-89
2022/10/17 01:39:43;;;;;;;;;;;;;;;11.31;59.81;101011.81;4350654;32;20364;-90
2022/10/17 01:42:13;;;;;;;;;;;;;;;11.27;59.80;101017.13;4337843;32;19995;-91
2022/10/17 01:44:41;;;;;;;;;;;;;;;11.20;59.80;101018.97;4351245;32;19999;-90
2022/10/17 01:47:07;;;;;;;;;;;;;;;11.33;59.81;101015.28;4338955;32;19991;-90
2022/10/17 01:49:33;;;;;;;;;;;;;;;11.49;59.82;101015.03;4339094;32;20045;-89
2022/10/17 01:52:18;;;;;;;;;;;;;;;11.14;59.79;101016.44;4339464;32;20333;-90
2022/10/17 01:54:54;;;;;;;;;;;;;;;11.11;59.79;101015.59;4365559;32;20033;-90
2022/10/17 01:57:32;;;;;;;;;;;;;;;11.15;59.79;101025.12;4342229;32;19978;-91
2022/10/17 01:59:57;;;;;;;;;;;;;;;11.22;59.80;101021.53;4343030;32;19997;-91
2022/10/17 02:02:23;;;;;;;;;;;;;;;11.14;59.81;101021.66;4339106;32;20261;-91
2022/10/17 02:04:48;;;;;;;;;;;;;;;11.12;59.79;101019.94;4350976;32;19994;-91
2022/10/17 02:07:13;;;;;;;;;;;;;;;11.13;59.79;101022.53;4351132;32;20018;-92
2022/10/17 02:09:39;;;;;;;;;;;;;;;11.14;59.79;101026.00;4338099;32;27164;-91
2022/10/17 02:12:23;;;;;;;;;;;;;;;10.85;59.77;101026.38;4337827;32;36764;-91
2022/10/17 02:14:53;;;;;;;;;;;;;;;10.87;59.78;101032.41;4350924;32;19994;-91
2022/10/17 02:17:21;;;;;;;;;;;;;;;10.92;59.79;101023.69;4338738;32;20376;-89
2022/10/17 02:20:07;;;;;;;;;;;;;;;10.93;59.79;101025.41;4338541;32;19987;-91
2022/10/17 02:22:35;;;;;;;;;;;;;;;10.81;59.78;101029.91;4338810;32;20333;-91
2022/10/17 02:25:13;;;;;;;;;;;;;;;10.95;59.79;101026.25;4350510;32;20703;-90
2022/10/17 02:27:44;;;;;;;;;;;;;;;10.94;59.79;101028.88;4338424;32;19979;-91
2022/10/17 02:30:09;;;;;;;;;;;;;;;10.87;59.78;101028.06;4338287;32;20035;-89
2022/10/17 02:32:39;;;;;;;;;;;;;;;10.86;59.78;101035.91;4363782;32;19989;-89
2022/10/17 02:35:04;;;;;;;;;;;;;;;10.74;59.78;101024.78;4338004;32;19991;-89
2022/10/17 02:37:29;;;;;;;;;;;;;;;10.77;59.78;101029.94;4337960;32;20021;-92
2022/10/17 02:39:55;;;;;;;;;;;;;;;10.77;59.78;101029.94;4338175;32;20042;-92
2022/10/17 02:42:20;;;;;;;;;;;;;;;10.73;59.78;101032.63;4338430;32;20042;-91
2022/10/17 02:44:46;;;;;;;;;;;;;;;10.79;59.78;101035.12;4337296;32;36956;-91
2022/10/17 02:47:29;;;;;;;;;;;;;;;10.89;59.78;101033.28;4349625;32;32681;-91
2022/10/17 02:49:55;;;;;;;;;;;;;;;10.85;59.79;101035.03;4350287;32;20002;-90
2022/10/17 02:52:23;;;;;;;;;;;;;;;10.83;59.78;101049.84;4350506;32;19991;-90
2022/10/17 02:54:50;;;;;;;;;;;;;;;10.82;59.78;101042.03;4354177;32;20352;-92
2022/10/17 02:57:34;;;;;;;;;;;;;;;10.61;59.76;101048.38;4343687;32;20054;-92
2022/10/17 03:00:00;;;;;;;;;;;;;;;10.67;59.77;101053.53;4369250;32;20072;-92
2022/10/17 03:02:25;;;;;;;;;;;;;;;10.76;59.77;101051.66;4355822;32;20065;-92
2022/10/17 03:04:50;;;;;;;;;;;;;;;10.71;59.77;101056.06;4342816;32;24523;-92
2022/10/17 03:07:16;;;;;;;;;;;;;;;10.65;59.77;101052.69;4356069;32;19997;-93
2022/10/17 03:09:41;;;;;;;;;;;;;;;10.60;59.76;101055.31;4343166;32;20005;-90
2022/10/17 03:12:06;;;;;;;;;;;;;;;10.64;59.77;101056.12;4354303;32;31282;-90
2022/10/17 03:14:33;;;;;;;;;;;;;;;10.84;59.79;101055.91;4354652;32;28754;-89
2022/10/17 03:16:58;;;;;;;;;;;;;;;10.68;59.77;101047.44;4342752;32;20313;-90
2022/10/17 03:19:23;;;;;;;;;;;;;;;10.65;59.77;101045.72;4355044;32;31348;-91
2022/10/17 03:21:48;;;;;;;;;;;;;;;10.70;59.78;101054.34;4344387;32;27368;-90
2022/10/17 03:24:13;;;;;;;;;;;;;;;10.68;59.77;101048.28;4364357;32;34924;-90
2022/10/17 03:26:39;;;;;;;;;;;;;;;10.56;59.77;101061.44;4343220;32;19975;-89
2022/10/17 03:29:04;;;;;;;;;;;;;;;10.55;59.76;101069.28;4353922;32;24616;-89
2022/10/17 03:31:29;;;;;;;;;;;;;;;10.55;59.77;101070.13;4338728;33;33873;-89
2022/10/17 03:33:54;;;;;;;;;;;;;;;10.45;59.76;101071.97;4338939;33;32302;-90
2022/10/17 03:36:19;;;;;;;;;;;;;;;10.56;59.77;101073.59;4338863;33;32268;-89
2022/10/17 03:38:45;;;;;;;;;;;;;;;10.54;59.76;101070.16;4339369;33;19981;-90
2022/10/17 03:41:10;;;;;;;;;;;;;;;10.54;59.76;101076.22;4353124;33;19988;-89
2022/10/17 03:43:35;;;;;;;;;;;;;;;10.35;59.75;101085.09;4351163;33;27340;-89
2022/10/17 03:46:00;;;;;;;;;;;;;;;10.41;59.76;101095.47;4339254;33;26411;-92
2022/10/17 03:48:26;;;;;;;;;;;;;;;10.63;59.78;101091.72;4339539;33;32209;-91
2022/10/17 03:50:51;;;;;;;;;;;;;;;10.67;59.77;101093.44;4339341;33;19991;-91
2022/10/17 03:53:16;;;;;;;;;;;;;;;10.54;59.76;101093.59;4339701;33;20261;-92
2022/10/17 03:55:41;;;;;;;;;;;;;;;10.36;59.75;101098.09;4338577;33;34852;-89
2022/10/17 03:58:07;;;;;;;;;;;;;;;10.46;59.75;101091.06;4338492;33;33666;-90
2022/10/17 04:00:34;;;;;;;;;;;;;;;10.52;59.76;101091.00;4351338;33;20039;-88
2022/10/17 04:02:59;;;;;;;;;;;;;;;10.42;59.75;101094.59;4351478;33;20345;-88
2022/10/17 04:05:24;;;;;;;;;;;;;;;10.47;59.76;101098.00;4350436;33;29464;-88
2022/10/17 04:07:49;;;;;;;;;;;;;;;10.36;59.75;101092.88;4347971;33;32975;-88
2022/10/17 04:10:15;;;;;;;;;;;;;;;10.35;59.75;101104.16;4348479;33;19995;-87
2022/10/17 04:12:40;;;;;;;;;;;;;;;10.36;59.75;101100.69;4349975;33;19983;-87
2022/10/17 04:15:05;;;;;;;;;;;;;;;10.31;59.75;101101.63;4348004;33;33796;-87
2022/10/17 04:17:30;;;;;;;;;;;;;;;10.22;59.74;101101.72;4335846;33;20038;-88
2022/10/17 04:19:56;;;;;;;;;;;;;;;10.26;59.75;101106.00;4347876;33;29732;-88
2022/10/17 04:22:21;;;;;;;;;;;;;;;10.35;59.75;101109.38;4335273;33;27351;-87
2022/10/17 04:24:46;;;;;;;;;;;;;;;10.40;59.76;101104.97;4348046;33;24288;-88
2022/10/17 04:27:11;;;;;;;;;;;;;;;10.56;59.77;101116.13;4348545;33;20003;-87
2022/10/17 04:29:37;;;;;;;;;;;;;;;10.60;59.76;101115.19;4349005;33;29669;-87
2022/10/17 04:32:02;;;;;;;;;;;;;;;10.45;59.75;101118.84;4347267;33;33044;-87
2022/10/17 04:34:27;;;;;;;;;;;;;;;10.36;59.75;101123.25;4336175;33;19999;-87
2022/10/17 04:36:52;;;;;;;;;;;;;;;10.27;59.75;101125.94;4335183;33;36834;-88
2022/10/17 04:39:18;;;;;;;;;;;;;;;10.36;59.75;101121.50;4348401;33;20026;-86
2022/10/17 04:41:43;;;;;;;;;;;;;;;10.43;59.76;101123.19;4348575;33;19987;-87
2022/10/17 04:44:09;;;;;;;;;;;;;;;10.42;59.76;101125.81;4336270;33;20759;-88
2022/10/17 04:46:34;;;;;;;;;;;;;;;10.43;59.76;101125.81;4336418;33;19992;-87
2022/10/17 04:48:59;;;;;;;;;;;;;;;10.39;59.76;101126.69;4356057;33;19988;-88
2022/10/17 04:51:25;;;;;;;;;;;;;;;10.27;59.74;101123.34;4349179;33;23594;-88
2022/10/17 04:53:50;;;;;;;;;;;;;;;10.37;59.75;101125.84;4349590;33;20239;-88
2022/10/17 04:56:16;;;;;;;;;;;;;;;10.48;59.76;101130.97;4348163;33;20619;-88
2022/10/17 04:58:42;;;;;;;;;;;;;;;10.28;59.75;101130.28;4348248;33;19983;-88
2022/10/17 05:01:07;;;;;;;;;;;;;;;10.31;59.75;101133.72;4348415;33;20006;-87
2022/10/17 05:03:33;;;;;;;;;;;;;;;10.50;59.77;101136.16;4348146;33;19971;-86
2022/10/17 05:06:01;;;;;;;;;;;;;;;10.56;59.77;101143.88;4335768;33;20019;-87
2022/10/17 05:08:26;;;;;;;;;;;;;;;10.39;59.76;101144.91;4349177;32;19980;-87
2022/10/17 05:10:52;;;;;;;;;;;;;;;10.80;59.78;101142.78;4347700;33;25438;-88
2022/10/17 05:13:17;;;;;;;;;;;;;;;10.32;59.75;101144.97;4347790;33;25889;-87
2022/10/17 05:15:42;;;;;;;;;;;;;;;10.25;59.75;101151.13;4347816;33;25483;-87
2022/10/17 05:18:07;;;;;;;;;;;;;;;10.11;59.74;101146.84;4334671;33;20285;-88
2022/10/17 05:20:33;;;;;;;;;;;;;;;10.14;59.74;101140.75;4348039;33;19980;-88
2022/10/17 05:22:58;;;;;;;;;;;;;;;10.32;59.76;101147.59;4348247;33;20033;-88
2022/10/17 05:25:23;;;;;;;;;;;;;;;10.19;59.75;101161.56;4348237;33;20376;-88
2022/10/17 05:27:49;;;;;;;;;;;;;;;10.27;59.75;101164.97;4335128;33;33375;-88
2022/10/17 05:30:14;;;;;;;;;;;;;;;10.21;59.74;101165.91;4347301;33;33761;-88
2022/10/17 05:32:39;;;;;;;;;;;;;;;10.31;59.75;101170.16;4335852;33;20403;-88
2022/10/17 05:35:05;;;;;;;;;;;;;;;10.40;59.75;101174.41;4335299;33;19975;-87
2022/10/17 05:37:30;;;;;;;;;;;;;;;10.62;59.76;101185.50;4348424;33;19999;-88
2022/10/17 05:39:55;;;;;;;;;;;;;;;10.67;59.77;101174.19;4335797;33;21287;-88
2022/10/17 05:42:20;;;;;;;;;;;;;;;10.74;59.78;101173.22;4349700;33;20235;-88
2022/10/17 05:44:46;;;;;;;;;;;;;;;10.60;59.76;101182.03;4349587;33;19987;-88
2022/10/17 05:47:11;;;;;;;;;;;;;;;10.56;59.76;101182.94;4348309;33;20340;-87
2022/10/17 05:49:36;;;;;;;;;;;;;;;10.59;59.76;101186.37;4335401;33;33744;-88
2022/10/17 05:52:01;;;;;;;;;;;;;;;10.64;59.77;101184.59;4335349;33;33896;-88
2022/10/17 05:54:26;;;;;;;;;;;;;;;10.77;59.78;101194.03;4348182;33;20326;-87
2022/10/17 05:56:55;;;;;;;;;;;;;;;10.86;59.78;101197.41;4347794;33;27632;-88
2022/10/17 05:59:20;;;;;;;;;;;;;;;11.07;59.79;101202.41;4348490;33;20049;-88
2022/10/17 06:01:45;;;;;;;;;;;;;;;11.12;59.79;101203.25;4336253;33;20341;-88
2022/10/17 06:04:10;;;;;;;;;;;;;;;11.21;59.80;101203.13;4335881;33;26561;-88
2022/10/17 06:06:36;;;;;;;;;;;;;;;11.31;59.81;101209.94;4349845;33;24575;-88
2022/10/17 06:09:01;;;;;;;;;;;;;;;11.31;59.81;101209.06;4350952;32;19987;-88
2022/10/17 06:11:26;;;;;;;;;;;;;;;11.24;59.80;101212.66;4352087;33;32706;-88
2022/10/17 06:13:51;;;;;;;;;;;;;;;11.45;59.81;101211.53;4347492;33;35069;-88
2022/10/17 06:16:17;;;;;;;;;;;;;;;11.59;59.83;101210.50;4350180;33;20032;-88
2022/10/17 06:18:42;;;;;;;;;;;;;;;11.54;59.82;101220.09;4334852;33;26276;-88
2022/10/17 06:21:08;;;;;;;;;;;;;;;11.77;59.83;101213.72;4348071;33;20305;-88
2022/10/17 06:23:34;;;;;;;;;;;;;;;11.94;59.84;101223.06;4336581;33;20054;-87
2022/10/17 06:25:59;;;;;;;;;;;;;;;12.10;59.85;101223.72;4337760;33;20121;-88
2022/10/17 06:28:24;;;;;;;;;;;;;;;12.04;59.84;101225.53;4336864;33;20029;-88
2022/10/17 06:30:50;;;;;;;;;;;;;;;12.09;59.84;101232.44;4335514;32;20003;-88
2022/10/17 06:33:15;;;;;;;;;;;;;;;12.28;59.85;101225.19;4337186;32;30874;-88
2022/10/17 06:35:40;;;;;;;;;;;;;;;12.31;59.86;101227.78;4350217;32;19991;-88
2022/10/17 06:38:06;;;;;;;;;;;;;;;12.48;59.86;101236.19;4349460;32;32155;-88
2022/10/17 06:40:31;;;;;;;;;;;;;;;12.52;59.87;101230.00;4363010;32;31536;-88
2022/10/17 06:42:56;;;;;;;;;;;;;;;12.74;59.89;101233.13;4350245;32;20022;-88
2022/10/17 06:45:22;;;;;;;;;;;;;;;12.95;59.89;101239.72;4337821;32;19991;-89
2022/10/17 06:47:48;;;;;;;;;;;;;;;13.17;59.90;101237.59;4350030;32;19986;-88
2022/10/17 06:50:13;;;;;;;;;;;;;;;13.32;59.91;101242.56;4363723;32;20340;-88
2022/10/17 06:52:38;;;;;;;;;;;;;;;13.42;59.92;101241.47;4363486;32;20053;-88
2022/10/17 06:55:03;;;;;;;;;;;;;;;13.61;59.93;101247.22;4349426;32;25926;-89
2022/10/17 06:57:29;;;;;;;;;;;;;;;13.84;59.94;101241.50;4349885;32;20360;-88
2022/10/17 06:59:56;;;;;;;;;;;;;;;13.96;59.95;101249.09;4349060;32;30306;-89
2022/10/17 07:02:22;;;;;;;;;;;;;;;14.11;59.96;101250.47;4363537;32;20317;-89
2022/10/17 07:04:48;;;;;;;;;;;;;;;14.34;59.98;101242.97;4363510;32;19975;-89
2022/10/17 07:07:13;;;;;;;;;;;;;;;14.48;59.97;101244.44;4337555;32;20009;-89
2022/10/17 07:09:38;;;;;;;;;;;;;;;14.64;59.99;101246.63;4336799;32;27212;-89
2022/10/17 07:12:06;;;;;;;;;;;;;;;14.76;59.99;101253.34;4336649;32;35726;-89
2022/10/17 07:14:32;;;;;;;;;;;;;;;14.81;59.99;101256.69;4350231;32;19990;-90
2022/10/17 07:16:57;;;;;;;;;;;;;;;15.11;60.01;101248.91;4337558;32;20132;-89
2022/10/17 07:19:23;;;;;;;;;;;;;;;15.23;60.01;101244.22;4337394;32;20019;-89
2022/10/17 07:21:48;;;;;;;;;;;;;;;15.41;60.03;101253.34;4349785;32;20015;-89
2022/10/17 07:24:13;;;;;;;;;;;;;;;15.50;60.03;101255.69;4349820;32;20002;-91
2022/10/17 07:26:38;;;;;;;;;;;;;;;15.58;60.03;101253.75;4337511;32;20010;-90
2022/10/17 07:29:05;;;;;;;;;;;;;;;15.74;60.04;101245.44;4349943;32;20038;-89
2022/10/17 07:31:30;;;;;;;;;;;;;;;15.83;60.04;101251.25;4350594;32;19971;-90
2022/10/17 07:33:55;;;;;;;;;;;;;;;15.99;60.05;101256.06;4339290;32;20048;-90
2022/10/17 07:36:20;;;;;;;;;;;;;;;16.18;60.07;101249.34;4356895;32;19963;-90
2022/10/17 07:38:46;;;;;;;;;;;;;;;16.13;60.06;101254.75;4357159;32;23047;-89
2022/10/17 07:41:12;;;;;;;;;;;;;;;16.25;60.08;101254.34;4351093;32;20112;-91
2022/10/17 07:43:37;;;;;;;;;;;;;;;16.50;60.08;101249.16;4339213;32;19983;-90
2022/10/17 07:46:04;;;;;;;;;;;;;;;16.28;60.08;101253.38;4351522;32;20030;-91
2022/10/17 07:48:29;;;;;;;;;;;;;;;16.58;60.09;101252.41;4339115;32;19991;-90
2022/10/17 07:50:54;;;;;;;;;;;;;;;16.68;60.09;101260.03;4338490;32;30474;-91
2022/10/17 07:53:19;;;;;;;;;;;;;;;16.86;60.10;101254.16;4338433;32;30543;-90
2022/10/17 07:55:45;;;;;;;;;;;;;;;16.88;60.10;101258.44;4351452;32;19991;-90
2022/10/17 07:58:10;;;;;;;;;;;;;;;17.09;60.12;101256.84;4338995;32;19991;-91
2022/10/17 08:00:35;;;;;;;;;;;;;;;17.12;60.11;101253.25;4338975;32;20018;-90
2022/10/17 08:03:01;;;;;;;;;;;;;;;17.01;60.11;101256.25;4338421;32;27808;-91
2022/10/17 08:05:27;;;;;;;;;;;;;;;17.15;60.11;101263.66;4351559;32;19991;-90
2022/10/17 08:07:52;;;;;;;;;;;;;;;17.19;60.12;101262.62;4338903;32;20278;-90
2022/10/17 08:10:18;;;;;;;;;;;;;;;17.08;60.12;101268.28;4338917;32;19994;-90
2022/10/17 08:12:43;;;;;;;;;;;;;;;17.25;60.12;101267.69;4351283;32;20253;-90
2022/10/17 08:15:08;;;;;;;;;;;;;;;17.48;60.14;101272.13;4351349;32;20282;-91
2022/10/17 08:17:34;;;;;;;;;;;;;;;17.67;60.14;101267.94;4338899;32;20026;-90
2022/10/17 08:19:59;;;;;;;;;;;;;;;17.78;60.16;101267.56;4351308;32;19971;-90
2022/10/17 08:22:24;;;;;;;;;;;;;;;17.84;60.15;101272.59;4364756;32;19967;-90
2022/10/17 08:24:50;;;;;;;;;;;;;;;18.02;60.16;101266.63;4364820;32;20033;-91
2022/10/17 08:27:20;;;;;;;;;;;;;;;18.09;60.17;101269.88;4350481;32;33762;-91
2022/10/17 08:29:47;;;;;;;;;;;;;;;18.11;60.17;101270.66;4351915;32;20026;-91
2022/10/17 08:32:12;;;;;;;;;;;;;;;18.35;60.18;101269.69;4339064;32;20344;-91
2022/10/17 08:34:38;;;;;;;;;;;;;;;18.42;60.19;101265.88;4338262;32;27704;-91
2022/10/17 08:37:03;;;;;;;;;;;;;;;18.44;60.18;101264.97;4363850;32;33261;-91
2022/10/17 08:39:28;;;;;;;;;;;;;;;18.50;60.19;101270.87;4338290;32;28955;-91
2022/10/17 08:41:56;;;;;;;;;;;;;;;18.41;60.19;101264.16;4338153;32;30292;-90
2022/10/17 08:44:34;;;;;;;;;;;;;;;18.45;60.18;101264.91;4364762;32;19991;-91
2022/10/17 08:47:00;;;;;;;;;;;;;;;18.82;60.21;101263.41;4364905;32;20006;-92
2022/10/17 08:49:46;;;;;;;;;;;;;;;18.91;60.21;101266.53;4339092;32;20014;-91
2022/10/17 08:52:18;;;;;;;;;;;;;;;18.95;60.22;101264.63;4364682;32;19975;-91
2022/10/17 08:54:45;;;;;;;;;;;;;;;18.92;60.22;101270.87;4339574;32;20078;-93
2022/10/17 08:57:11;;;;;;;;;;;;;;;19.17;60.22;101270.72;4340225;32;19979;-91
2022/10/17 08:59:36;;;;;;;;;;;;;;;19.19;60.23;101268.84;4341055;32;20001;-92
2022/10/17 09:02:02;;;;;;;;;;;;;;;19.02;60.22;101269.56;4343563;32;35235;-91
2022/10/17 09:04:34;;;;;;;;;;;;;;;19.26;60.23;101267.66;4353158;32;19983;-91
2022/10/17 09:07:17;;;;;;;;;;;;;;;19.35;60.23;101262.88;4364526;32;19984;-91
2022/10/17 09:10:03;;;;;;;;;;;;;;;19.38;60.23;101270.66;4364596;32;20397;-91
2022/10/17 09:12:28;;;;;;;;;;;;;;;19.49;60.24;101269.28;4327970;32;19987;-91
2022/10/17 09:15:09;;;;;;;;;;;;;;;19.61;60.24;101267.87;4364594;32;20006;-92
2022/10/17 09:17:48;;;;;;;;;;;;;;;19.72;60.26;101267.41;4350933;32;20333;-91
2022/10/17 09:20:15;;;;;;;;;;;;;;;19.68;60.25;101265.84;4338602;32;20046;-91
2022/10/17 09:22:45;;;;;;;;;;;;;;;19.79;60.26;101263.56;4350872;32;19991;-91
2022/10/17 09:25:12;;;;;;;;;;;;;;;19.95;60.26;101261.06;4338499;32;20152;-92
2022/10/17 09:27:39;;;;;;;;;;;;;;;20.08;60.27;101265.69;4350927;32;20054;-91
2022/10/17 09:30:10;;;;;;;;;;;;;;;20.16;60.29;101262.69;4350926;32;19983;-91
2022/10/17 09:32:36;;;;;;;;;;;;;;;20.24;60.29;101261.38;4364282;32;20002;-90
2022/10/17 09:35:01;;;;;;;;;;;;;;;20.37;60.29;101266.97;4337975;32;30108;-91
2022/10/17 09:37:29;;;;;;;;;;;;;;;20.48;60.30;101266.44;4350712;32;20325;-92
2022/10/17 09:39:54;;;;;;;;;;;;;;;20.62;60.30;101273.72;4350834;32;19997;-91
2022/10/17 09:42:20;;;;;;;;;;;;;;;20.63;60.31;101268.34;4351076;32;25382;-92
2022/10/17 09:44:54;;;;;;;;;;;;;;;20.88;60.32;101262.69;4339654;32;19995;-92
2022/10/17 09:47:40;;;;;;;;;;;;;;;21.03;60.32;101271.63;4339344;32;20046;-92
2022/10/17 09:50:15;;;;;;;;;;;;;;;21.13;60.33;101265.78;4351729;32;19989;-91
2022/10/17 09:52:46;;;;;;;;;;;;;;;21.25;60.34;101266.97;4351414;32;19967;-91
2022/10/17 09:55:16;;;;;;;;;;;;;;;21.41;60.33;101261.72;4339625;32;20042;-91
2022/10/17 09:58:00;;;;;;;;;;;;;;;21.50;60.35;101258.56;4338942;32;19979;-91
2022/10/17 10:00:27;;;;;;;;;;;;;;;21.68;60.36;101260.25;4351682;32;19967;-94
2022/10/17 10:03:08;;;;;;;;;;;;;;;21.99;60.37;101248.78;4338740;32;20010;-91
2022/10/17 10:05:34;;;;;;;;;;;;;;;22.01;60.38;101254.03;4338521;32;20010;-91
2022/10/17 10:08:00;;;;;;;;;;;;;;;22.08;60.38;101252.78;4350174;32;23373;-91
2022/10/17 10:10:26;;;;;;;;;;;;;;;22.36;60.40;101252.06;4350788;32;19991;-93
2022/10/17 10:13:05;;;;;;;;;;;;;;;22.36;60.40;101257.37;4338306;32;19992;-92
2022/10/17 10:15:32;;;;;;;;;;;;;;;22.49;60.41;101252.22;4338605;32;20685;-92
2022/10/17 10:17:57;;;;;;;;;;;;;;;22.55;60.41;101257.19;4338990;32;19971;-92
2022/10/17 10:20:23;;;;;;;;;;;;;;;22.60;60.41;101255.09;4338919;32;19993;-91
2022/10/17 10:23:09;;;;;;;;;;;;;;;22.67;60.42;101240.53;4352103;32;20011;-91
2022/10/17 10:25:34;;;;;;;;;;;;;;;22.83;60.42;101245.81;4354352;32;20013;-92
2022/10/17 10:27:59;;;;;;;;;;;;;;;22.79;60.42;101250.44;4344545;32;31341;-92
2022/10/17 10:30:27;;;;;;;;;;;;;;;23.01;60.43;101251.84;4338430;32;34194;-92
2022/10/17 10:32:52;;;;;;;;;;;;;;;23.05;60.44;101242.75;4338323;32;19987;-93
2022/10/17 10:35:18;;;;;;;;;;;;;;;23.12;60.45;101246.72;4337745;32;26734;-91
2022/10/17 10:37:44;;;;;;;;;;;;;;;23.11;60.45;101243.22;4338158;32;19971;-91
2022/10/17 10:40:20;;;;;;;;;;;;;;;23.18;60.44;101238.38;4350412;32;19975;-91
2022/10/17 10:42:50;;;;;;;;;;;;;;;23.31;60.45;101236.69;4350645;32;19987;-91
2022/10/17 10:45:15;;;;;;;;;;;;;;;23.53;60.46;101233.56;4350604;32;19995;-91
2022/10/17 10:47:51;;;;;;;;;;;;;;;23.52;60.46;101234.53;4363735;32;19991;-91
2022/10/17 10:50:24;;;;;;;;;;;;;;;23.62;60.47;101237.47;4338154;32;20038;-91
2022/10/17 10:52:52;;;;;;;;;;;;;;;23.61;60.46;101236.63;4350290;32;20005;-91
2022/10/17 10:55:23;;;;;;;;;;;;;;;23.54;60.46;101237.94;4363867;32;19987;-92
2022/10/17 10:57:49;;;;;;;;;;;;;;;23.61;60.47;101235.78;4350048;32;19983;-92
2022/10/17 11:00:14;;;;;;;;;;;;;;;23.53;60.46;101237.06;4350242;32;19987;-92
2022/10/17 11:02:45;;;;;;;;;;;;;;;23.54;60.47;101233.47;4337692;32;20006;-91
2022/10/17 11:05:42;;;;;;;;;;;;;;;23.57;60.48;101235.97;4350082;32;20373;-91
2022/10/17 11:08:10;;;;;;;;;;;;;;;23.65;60.46;101226.66;4330392;32;19990;-91
2022/10/17 11:10:56;;;;;;;;;;;;;;;23.73;60.48;101227.88;4350231;32;19975;-92
2022/10/17 11:13:33;;;;;;;;;;;;;;;23.98;60.49;101218.34;4363080;32;19984;-93
2022/10/17 11:16:00;;;;;;;;;;;;;;;24.03;60.49;101214.41;4339033;32;20425;-92
2022/10/17 11:18:31;;;;;;;;;;;;;;;23.93;60.49;101218.66;4351849;32;19979;-92
2022/10/17 11:20:58;;;;;;;;;;;;;;;23.96;60.48;101218.44;4351692;32;19979;-92
2022/10/17 11:23:29;;;;;;;;;;;;;;;24.00;60.49;101219.09;4339583;32;20011;-92
2022/10/17 11:25:55;;;;;;;;;;;;;;;24.01;60.49;101224.31;4339552;32;20067;-92
2022/10/17 11:28:21;;;;;;;;;;;;;;;24.22;60.51;101215.88;4339304;32;20347;-92
2022/10/17 11:30:55;;;;;;;;;;;;;;;24.30;60.51;101213.59;4339457;32;20042;-93
2022/10/17 11:33:28;;;;;;;;;;;;;;;24.25;60.50;101213.03;4365485;32;20006;-92
2022/10/17 11:35:54;;;;;;;;;;;;;;;24.35;60.50;101214.13;4339731;32;20336;-92
2022/10/17 11:38:28;;;;;;;;;;;;;;;24.31;60.51;101210.84;4351922;32;19990;-92
2022/10/17 11:40:55;;;;;;;;;;;;;;;24.36;60.50;101205.19;4365480;32;20288;-91
2022/10/17 11:43:23;;;;;;;;;;;;;;;24.52;60.51;101202.38;4339819;32;20003;-91
2022/10/17 11:45:50;;;;;;;;;;;;;;;24.46;60.52;101201.84;4352703;32;20360;-92
2022/10/17 11:48:20;;;;;;;;;;;;;;;24.58;60.52;101196.63;4341022;32;20770;-93
2022/10/17 11:50:51;;;;;;;;;;;;;;;24.63;60.52;101197.19;4343138;32;20001;-91
2022/10/17 11:53:18;;;;;;;;;;;;;;;24.52;60.53;101197.06;4345207;32;19963;-92
2022/10/17 11:55:43;;;;;;;;;;;;;;;24.69;60.53;101196.78;4352103;32;20114;-92
2022/10/17 11:58:11;;;;;;;;;;;;;;;24.36;60.50;101197.22;4351039;32;19979;-92
2022/10/17 12:00:39;;;;;;;;;;;;;;;24.55;60.52;101199.50;4351361;32;19983;-92
2022/10/17 12:03:23;;;;;;;;;;;;;;;24.44;60.52;101194.91;4351441;32;19991;-92
2022/10/17 12:05:56;;;;;;;;;;;;;;;24.54;60.52;101193.31;4351433;32;20019;-92
2022/10/17 12:08:37;;;;;;;;;;;;;;;24.53;60.53;101191.62;4339131;32;19979;-92
2022/10/17 12:11:23;;;;;;;;;;;;;;;24.44;60.52;101187.78;4339327;32;20348;-92
2022/10/17 12:13:50;;;;;;;;;;;;;;;24.53;60.53;101188.09;4338962;32;20014;-93
2022/10/17 12:16:18;;;;;;;;;;;;;;;24.61;60.52;101197.31;4339282;32;20663;-92
2022/10/17 12:18:47;;;;;;;;;;;;;;;24.53;60.52;101185.44;4364913;32;19983;-93
2022/10/17 12:21:12;;;;;;;;;;;;;;;24.59;60.52;101179.69;4351282;32;20034;-92
2022/10/17 12:23:37;;;;;;;;;;;;;;;24.59;60.53;101180.56;4350902;32;25090;-92
2022/10/17 12:26:07;;;;;;;;;;;;;;;24.56;60.52;101178.09;4350985;32;20324;-92
2022/10/17 12:28:45;;;;;;;;;;;;;;;24.40;60.52;101175.66;4338868;32;20399;-91
2022/10/17 12:31:17;;;;;;;;;;;;;;;24.55;60.52;101172.87;4351217;32;20049;-93
2022/10/17 12:33:52;;;;;;;;;;;;;;;24.48;60.52;101175.97;4351263;32;20010;-92
2022/10/17 12:36:17;;;;;;;;;;;;;;;24.60;60.53;101168.94;4351157;32;20377;-91
2022/10/17 12:38:42;;;;;;;;;;;;;;;24.46;60.52;101172.56;4350901;32;20035;-92